createdAt,value
2019-02-25T00:00:34.668Z,4.12
2019-02-25T00:05:38.129Z,3.89
2019-02-25T00:10:41.539Z,4.10
2019-02-25T00:15:44.953Z,4.03
2019-02-25T00:20:48.368Z,4.15
2019-02-25T00:25:51.783Z,4.01
2019-02-25T00:30:55.219Z,3.92
2019-02-25T00:35:58.643Z,3.85
2019-02-25T00:41:02.110Z,3.64
2019-02-25T00:46:05.507Z,3.69
2019-02-25T00:51:08.953Z,3.71
2019-02-25T00:56:12.365Z,3.57
2019-02-25T01:01:15.889Z,3.66
2019-02-25T01:06:19.302Z,3.76
2019-02-25T01:11:22.748Z,3.72
2019-02-25T01:16:26.162Z,3.76
2019-02-25T01:21:29.585Z,3.74
2019-02-25T01:26:32.995Z,3.53
2019-02-25T01:31:36.417Z,3.59
2019-02-25T01:36:39.989Z,3.52
2019-02-25T01:41:43.521Z,3.41
2019-02-25T01:46:46.910Z,3.59
2019-02-25T01:51:50.324Z,3.44
2019-02-25T01:56:53.806Z,3.45
2019-02-25T02:01:57.236Z,3.49
2019-02-25T02:07:00.676Z,3.37
2019-02-25T02:12:04.161Z,3.34
2019-02-25T02:17:07.587Z,3.07
2019-02-25T02:22:11.107Z,3.26
2019-02-25T02:27:14.615Z,3.03
2019-02-25T02:32:18.036Z,3.08
2019-02-25T02:37:21.486Z,3.07
2019-02-25T02:42:24.905Z,3.05
2019-02-25T02:47:52.009Z,2.78
2019-02-25T02:52:55.430Z,2.61
2019-02-25T02:57:58.885Z,2.57
2019-02-25T03:03:02.349Z,2.29
2019-02-25T03:08:05.755Z,2.62
2019-02-25T03:13:09.650Z,2.56
2019-02-25T03:18:13.101Z,2.67
2019-02-25T03:23:16.535Z,2.48
2019-02-25T03:28:20.486Z,2.32
2019-02-25T03:33:24.018Z,2.18
2019-02-25T03:38:27.430Z,2.51
2019-02-25T03:43:30.851Z,2.38
2019-02-25T03:48:34.271Z,2.31
2019-02-25T03:53:37.736Z,2.40
2019-02-25T03:58:41.142Z,2.51
2019-02-25T04:03:44.632Z,2.11
2019-02-25T04:08:48.047Z,2.21
2019-02-25T04:13:51.478Z,2.37
2019-02-25T04:18:54.981Z,2.63
2019-02-25T04:23:58.423Z,2.60
2019-02-25T04:29:01.907Z,2.39
2019-02-25T04:34:05.329Z,2.42
2019-02-25T04:39:08.752Z,2.25
2019-02-25T04:44:12.198Z,2.25
2019-02-25T04:49:15.636Z,2.10
2019-02-25T04:54:19.065Z,2.03
2019-02-25T04:59:22.498Z,2.12
2019-02-25T05:04:25.929Z,1.91
2019-02-25T05:09:29.376Z,1.98
2019-02-25T05:14:32.795Z,1.96
2019-02-25T05:19:36.211Z,1.96
2019-02-25T05:24:39.668Z,1.97
2019-02-25T05:29:43.127Z,1.99
2019-02-25T05:34:46.571Z,1.77
2019-02-25T05:39:50.013Z,1.59
2019-02-25T05:44:53.457Z,1.68
2019-02-25T05:49:56.962Z,1.91
2019-02-25T05:55:00.431Z,1.83
2019-02-25T06:00:05.330Z,1.93
2019-02-25T06:05:08.765Z,1.67
2019-02-25T06:10:13.630Z,1.81
2019-02-25T06:15:18.512Z,1.74
2019-02-25T06:20:22.016Z,1.75
2019-02-25T06:25:25.503Z,1.82
2019-02-25T06:30:28.949Z,1.59
2019-02-25T06:35:32.448Z,1.95
2019-02-25T06:40:35.894Z,1.92
2019-02-25T06:45:39.329Z,2.14
2019-02-25T06:50:42.760Z,1.99
2019-02-25T06:55:46.195Z,1.99
2019-02-25T07:00:49.628Z,2.10
2019-02-25T07:05:57.270Z,2.00
2019-02-25T07:11:14.097Z,2.06
2019-02-25T07:16:24.680Z,2.04
2019-02-25T07:21:29.749Z,2.12
2019-02-25T07:26:34.820Z,2.30
2019-02-25T07:31:56.133Z,2.29
2019-02-25T07:37:13.224Z,2.22
2019-02-25T07:53:16.313Z,2.76
2019-02-25T07:58:30.501Z,2.83
2019-02-25T08:03:44.237Z,3.04
2019-02-25T08:09:05.302Z,3.32
2019-02-25T08:14:28.381Z,3.52
2019-02-25T08:25:15.361Z,3.77
2019-02-25T08:30:23.376Z,4.20
2019-02-25T08:36:04.502Z,4.63
2019-02-25T08:41:11.777Z,4.77
2019-02-25T08:46:16.868Z,5.31
2019-02-25T08:51:20.318Z,5.77
2019-02-25T08:56:23.754Z,6.50
2019-02-25T09:01:27.178Z,6.95
2019-02-25T09:06:30.593Z,7.39
2019-02-25T09:11:34.024Z,7.80
2019-02-25T09:16:37.441Z,8.14
2019-02-25T09:21:40.897Z,8.52
2019-02-25T09:26:44.327Z,8.97
2019-02-25T09:31:47.770Z,9.44
2019-02-25T09:36:51.196Z,9.92
2019-02-25T09:41:54.660Z,10.46
2019-02-25T09:46:58.163Z,10.82
2019-02-25T09:52:01.606Z,11.32
2019-02-25T09:57:05.114Z,11.73
2019-02-25T10:02:08.563Z,12.08
2019-02-25T10:07:11.995Z,12.78
2019-02-25T10:12:15.461Z,13.15
2019-02-25T10:17:23.796Z,13.56
2019-02-25T10:22:24.025Z,14.08
2019-02-25T10:27:27.473Z,14.38
2019-02-25T10:32:30.912Z,14.65
2019-02-25T10:37:36.268Z,15.15
2019-02-25T10:42:39.526Z,15.69
2019-02-25T10:47:44.248Z,16.10
2019-02-25T10:52:49.510Z,16.56
2019-02-25T10:57:54.916Z,17.14
2019-02-25T11:02:58.398Z,17.28
2019-02-25T11:08:05.223Z,17.78
2019-02-25T11:13:08.702Z,18.51
2019-02-25T11:18:12.144Z,18.86
2019-02-25T11:23:17.646Z,19.09
2019-02-25T11:28:25.434Z,19.69
2019-02-25T11:33:27.903Z,19.94
2019-02-25T11:38:34.739Z,19.79
2019-02-25T11:43:36.293Z,20.08
2019-02-25T11:48:39.730Z,20.34
2019-02-25T11:53:43.146Z,20.75
2019-02-25T11:58:46.582Z,20.83
2019-02-25T12:03:50.146Z,21.16
2019-02-25T12:08:53.582Z,20.54
2019-02-25T12:13:57.016Z,20.58
2019-02-25T12:19:00.457Z,21.80
2019-02-25T12:24:03.882Z,21.80
2019-02-25T12:29:10.809Z,22.30
2019-02-25T12:34:12.543Z,22.04
2019-02-25T12:39:16.310Z,22.04
2019-02-25T12:44:19.763Z,22.55
2019-02-25T12:49:23.193Z,23.12
2019-02-25T12:54:26.665Z,23.12
2019-02-25T12:59:30.133Z,22.91
2019-02-25T13:04:33.584Z,23.19
2019-02-25T13:09:37.011Z,22.81
2019-02-25T13:14:40.471Z,23.38
2019-02-25T13:19:43.865Z,23.38
2019-02-25T13:24:47.303Z,21.75
2019-02-25T13:29:50.735Z,22.44
2019-02-25T13:34:54.153Z,22.80
2019-02-25T13:39:57.589Z,22.24
2019-02-25T13:45:01.022Z,22.47
2019-02-25T13:50:07.678Z,22.20
2019-02-25T13:55:19.242Z,21.69
2019-02-25T14:00:24.047Z,21.69
2019-02-25T14:05:27.568Z,21.30
2019-02-25T14:10:31.006Z,21.03
2019-02-25T14:15:34.529Z,21.03
2019-02-25T14:20:38.217Z,19.95
2019-02-25T14:25:41.802Z,19.75
2019-02-25T14:30:45.233Z,19.99
2019-02-25T14:35:50.281Z,20.04
2019-02-25T14:40:56.322Z,19.91
2019-02-25T14:46:01.444Z,19.82
2019-02-25T14:51:04.729Z,19.30
2019-02-25T14:56:08.262Z,19.49
2019-02-25T15:01:11.726Z,19.48
2019-02-25T15:06:15.174Z,19.11
2019-02-25T15:11:18.713Z,19.14
2019-02-25T15:16:22.248Z,19.07
2019-02-25T15:21:25.798Z,18.88
2019-02-25T15:26:30.266Z,18.42
2019-02-25T15:31:33.994Z,17.92
2019-02-25T15:36:37.595Z,17.67
2019-02-25T15:41:44.111Z,17.18
2019-02-25T15:46:46.343Z,17.39
2019-02-25T15:51:49.812Z,17.47
2019-02-25T15:56:53.282Z,17.21
2019-02-25T16:01:56.728Z,16.98
2019-02-25T16:07:03.848Z,16.89
2019-02-25T16:12:07.042Z,16.89
2019-02-25T16:17:10.967Z,16.78
2019-02-25T16:22:14.455Z,16.62
2019-02-25T16:27:19.389Z,16.42
2019-02-25T16:32:24.117Z,16.22
2019-02-25T16:37:29.144Z,15.98
2019-02-25T16:42:34.738Z,15.69
2019-02-25T16:47:39.038Z,15.33
2019-02-25T16:52:44.996Z,14.95
2019-02-25T16:57:48.323Z,14.58
2019-02-25T17:02:51.836Z,14.29
2019-02-25T17:07:56.260Z,14.01
2019-02-25T17:12:59.851Z,13.68
2019-02-25T17:18:03.286Z,13.32
2019-02-25T17:23:09.562Z,13.06
2019-02-25T17:28:14.777Z,12.82
2019-02-25T17:33:17.221Z,12.54
2019-02-25T17:38:22.607Z,12.25
2019-02-25T17:43:25.804Z,12.03
2019-02-25T17:48:29.256Z,11.74
2019-02-25T17:53:32.851Z,11.58
2019-02-25T17:58:38.087Z,11.31
2019-02-25T18:03:43.422Z,11.08
2019-02-25T18:08:46.865Z,10.84
2019-02-25T18:13:51.259Z,10.63
2019-02-25T18:18:56.828Z,10.48
2019-02-25T18:24:00.732Z,10.23
2019-02-25T18:29:05.557Z,10.03
2019-02-25T18:34:11.199Z,9.97
2019-02-25T18:39:15.393Z,10.02
2019-02-25T18:44:18.999Z,9.98
2019-02-25T18:49:22.640Z,9.74
2019-02-25T18:54:26.078Z,9.54
2019-02-25T18:59:30.333Z,9.41
2019-02-25T19:04:34.976Z,9.28
2019-02-25T19:09:40.842Z,9.12
2019-02-25T19:14:44.110Z,8.98
2019-02-25T19:19:51.096Z,9.02
2019-02-25T19:24:52.763Z,8.95
2019-02-25T19:29:58.598Z,8.73
2019-02-25T19:35:04.008Z,8.62
2019-02-25T19:40:14.417Z,8.50
2019-02-25T19:45:18.327Z,8.46
2019-02-25T19:50:22.972Z,8.38
2019-02-25T19:55:26.406Z,8.27
2019-02-25T20:00:33.044Z,8.27
2019-02-25T20:05:38.797Z,8.12
2019-02-25T20:10:40.436Z,7.97
2019-02-25T20:15:44.469Z,7.85
2019-02-25T20:20:49.214Z,7.73
2019-02-25T20:25:53.573Z,7.67
2019-02-25T20:30:57.923Z,7.48
2019-02-25T20:36:03.164Z,7.45
2019-02-25T20:41:06.607Z,7.20
2019-02-25T20:46:10.029Z,7.18
2019-02-25T20:51:13.461Z,7.14
2019-02-25T20:56:16.891Z,6.95
2019-02-25T21:01:20.964Z,6.80
2019-02-25T21:06:24.538Z,6.83
2019-02-25T21:11:27.962Z,6.60
2019-02-25T21:16:33.071Z,6.66
2019-02-25T21:21:37.287Z,6.84
2019-02-25T21:26:42.202Z,6.82
2019-02-25T21:31:47.565Z,6.86
2019-02-25T21:36:52.462Z,6.73
2019-02-25T21:41:56.069Z,6.75
2019-02-25T21:47:01.173Z,6.64
2019-02-25T21:52:06.265Z,6.53
2019-02-25T21:57:09.954Z,6.45
2019-02-25T22:02:13.362Z,6.40
2019-02-25T22:07:19.797Z,6.36
2019-02-25T22:12:22.015Z,6.33
2019-02-25T22:17:25.459Z,6.38
2019-02-25T22:22:31.096Z,6.34
2019-02-25T22:27:35.297Z,6.25
2019-02-25T22:32:40.864Z,6.23
2019-02-25T22:37:47.183Z,6.21
2019-02-25T22:42:52.094Z,6.13
2019-02-25T22:47:54.998Z,6.09
2019-02-25T22:53:00.990Z,6.10
2019-02-25T22:58:03.576Z,6.02
2019-02-25T23:03:11.036Z,5.73
2019-02-25T23:08:13.087Z,5.67
2019-02-25T23:13:17.784Z,5.30
2019-02-25T23:18:25.110Z,5.13
2019-02-25T23:23:28.700Z,5.30
2019-02-25T23:28:32.872Z,5.25
2019-02-25T23:33:38.169Z,5.07
2019-02-25T23:38:41.489Z,5.17
2019-02-25T23:43:46.657Z,5.22
2019-02-25T23:48:50.063Z,5.23
2019-02-25T23:53:55.415Z,5.16
2019-02-25T23:58:58.629Z,5.16
